Details From LFMY - Salon AB
To LFTW - Garons Navy
Flight Number -
Tags generated
Created
Modified
Stats Distance 36 nm / 66 km
Max Altitude 3,400 ft / 1,036 m
Waypoints 3
Social Downloads 3
Likes 0
Share VATSIM

Download

Looking for another format? Having issues loading an existing format? Contact us
Advertisement - Login to hide

Notes

Basic altitude profile: - Ascent Rate: 2500ft/min - Ascent Speed: 250kts - Cruise Altitude: 35000ft - Cruise Speed: 420kts - Descent Rate: 1500ft/min - Descent Speed: 250kts Options: - Use NATs: yes - Use PACOTS: yes - Use low airways: yes - Use high airways: yes

Route

LFMY ITR LFTW

ID Type Via Altitude (ft/m) Position (lat/lon) Dist (leg/tot) Name
O LFMY APT - 0 / 0 43.60892 / 5.11352 - / 0 nm Salon AB
ITR DME - 3,400 / 1,036 43.52608 / 4.92692 9 / 9 nm ISTRES TACAN DME
O LFTW APT - 0 / 0 43.75744 / 4.41639 26 / 35 nm Garons Navy

Altitude Profile

Advertisement - Login to hide

LFMY

Details ICAO LFMY
Name Salon AB
Region France
Timezone Europe/Paris (UTC+2.0)
Stats Elevation 197 ft / 60 m (AMSL)
Location 43.608900° 5.113520°
Runways 3
Magnetic Variation 1.624° E

METAR

LFMY 191400Z AUTO 34008KT CAVOK 24/15 Q1017 NOSIG

Decode

TAF

TAF LFMY 190800Z 1909/2009 VRB02KT CAVOK FM191000 33008KT CAVOK

Decode

Departure Runways

ID Width Length Bearing (true/mag) Surface Threshold Overrun Markings Lighting
09 131 ft / 40 m 2,573 ft / 784 m 90.96° / 89.33° GRASS 0 ft / 0 m 0 ft / 0 m NONE
16 148 ft / 45 m 6,570 ft / 2,003 m 159.78° / 158.15° ASPHALT 0 ft / 0 m 545 ft / 166 m PREC-APP EDGE THRESHOLD REIL-OMNI
17 295 ft / 90 m 3,167 ft / 965 m 164.43° / 162.81° GRASS 0 ft / 0 m 0 ft / 0 m NONE
27 131 ft / 40 m 2,573 ft / 784 m 270.96° / 269.34° GRASS 0 ft / 0 m 0 ft / 0 m NONE
34 148 ft / 45 m 6,570 ft / 2,003 m 339.78° / 338.16° ASPHALT 0 ft / 0 m 650 ft / 198 m APP EDGE THRESHOLD REIL-OMNI
35R 295 ft / 90 m 3,167 ft / 965 m 344.44° / 342.81° GRASS 0 ft / 0 m 0 ft / 0 m NONE

LFTW

Details ICAO LFTW (FNI)
Name Garons Navy
Region France
Timezone Europe/Paris (UTC+2.0)
Stats Elevation 308 ft / 94 m (AMSL)
Location 43.757400° 4.416390°
Runways 1
Magnetic Variation 1.454° E

METAR

LFTW 191400Z AUTO 00000KT CAVOK 25/14 Q1017 NOSIG

Decode

TAF

TAF LFTW 190800Z 1909/2009 02008KT CAVOK

Decode

Destination Runways

ID Width Length Bearing (true/mag) Surface Threshold Overrun Markings Lighting
18 148 ft / 45 m 8,657 ft / 2,639 m 177.10° / 175.64° CONCRETE 331 ft / 101 m 0 ft / 0 m PREC-APP EDGE THRESHOLD ALSF-I REIL-OMNI
36 148 ft / 45 m 8,657 ft / 2,639 m 357.10° / 355.64° CONCRETE 331 ft / 101 m 0 ft / 0 m PREC-APP EDGE THRESHOLD REIL-OMNI

Approach Navaids

Runway Type Ident Frequency Range Bearing (true/mag) Slope Elevation
18 DME NG 109.55 MHz 18 nm / 33 km - - 340 ft / 104 m (AMSL)
36 GS NG 109.09 MHz 10 nm / 19 km 357.19° / 355.74 ° 3.00° 308 ft / 94 m (AMSL)
36 LOC-ILS NG 109.09 MHz 18 nm / 33 km 356.75° / 355.30 ° - 308 ft / 94 m (AMSL)